Briefing drone pour Olivet

Rechercher une autre localisation

Conditions de vol :


Nous sommes le : Lundi 02 août 2021
Il est 00:31 UTC (02:31 LT)

Lever de soleil : 04:04 UTC (06:04 LT)
Coucher de soleil : 19:52 UTC (21:52 LT)

Météo

L'essentiel des conditions de vol

VIGILANCE MÉTÉO FRANCE - Loiret (45)
Vigilance Jaune : Orages
CARTE TEMSI
CARTES DES FRONTS
METAR de LFOJ
LFOJ 020000Z AUTO 21003KT 9999 SCT038 BKN066 OVC100 15/13 Q1014

Date d'émission: 02/08/2021
Heure d'émission: 00:00 UTC
Vent: 210° pour 3 KT (6 km/h)
Visibilité horizontale: > 10 km
Plafond :
- Nuages épars à 3800ft (1158m)
- Nuages morcelés à 6600ft (2012m)
- Couvert à 10000ft (3048m)
Température: 15 °C
Point de rosée: 13 °C
Humidité: 88%
Pression (QNH): 1014 hPa
TAF de LFOJ
LFOJ 011103Z 0111/0209 CNL

Conditions prévues :

Heure d'émission : Bulletin éffectué le 01 à 11:00 UTC
Prévision : Valide du 01 a 11:00 UTC au 02 a 09:00 UTC
Nuages : à 0ft (0 m)
WEBCAM POUR OLIVET

Réglementation

Voler en sécurité

CARTES AERONAUTIQUE 1/500.000
CARTES VAC (LFOJ)
SUP AIP




Chargement des AIP...
NOTAM (OLIVET + Terrain à proximité / FIR )




Chargement des NOTAMS...
CONTACT PREFECTURE 45


Avertissement : Les données mises à disposition sont indicatives. Oxygène Drone ne pourra être tenu responsable de dégâts causés aux biens et aux personnes.